sensor_id;sensor_type;location;lat;lon;timestamp;pressure;altitude;pressure_sealevel;temperature;humidity
19210;BME280;9738;51.654;14.238;2023-03-23T00:01:23;99682.13;;;12.62;68.52
19210;BME280;9738;51.654;14.238;2023-03-23T00:03:53;99682.22;;;12.69;68.46
19210;BME280;9738;51.654;14.238;2023-03-23T00:06:26;99689.72;;;12.74;68.14
19210;BME280;9738;51.654;14.238;2023-03-23T00:08:54;99686.03;;;12.75;68.03
19210;BME280;9738;51.654;14.238;2023-03-23T00:11:29;99686.31;;;12.80;68.06
19210;BME280;9738;51.654;14.238;2023-03-23T00:13:58;99686.31;;;12.80;67.80
19210;BME280;9738;51.654;14.238;2023-03-23T00:16:31;99691.50;;;12.81;68.28
19210;BME280;9738;51.654;14.238;2023-03-23T00:19:00;99683.66;;;12.80;68.17
19210;BME280;9738;51.654;14.238;2023-03-23T00:21:29;99675.69;;;12.86;68.31
19210;BME280;9738;51.654;14.238;2023-03-23T00:24:03;99667.66;;;12.86;68.36
19210;BME280;9738;51.654;14.238;2023-03-23T00:26:30;99673.66;;;12.88;68.46
19210;BME280;9738;51.654;14.238;2023-03-23T00:29:01;99660.06;;;12.90;68.49
19210;BME280;9738;51.654;14.238;2023-03-23T00:31:28;99674.97;;;12.92;68.21
19210;BME280;9738;51.654;14.238;2023-03-23T00:33:58;99677.16;;;12.89;68.31
19210;BME280;9738;51.654;14.238;2023-03-23T00:36:27;99671.50;;;12.84;68.28
19210;BME280;9738;51.654;14.238;2023-03-23T00:38:54;99667.00;;;12.84;67.85
19210;BME280;9738;51.654;14.238;2023-03-23T00:41:25;99663.47;;;12.84;67.86
19210;BME280;9738;51.654;14.238;2023-03-23T00:43:56;99658.78;;;12.86;67.75
19210;BME280;9738;51.654;14.238;2023-03-23T00:46:23;99658.59;;;12.87;67.82
19210;BME280;9738;51.654;14.238;2023-03-23T00:48:50;99662.09;;;12.88;67.46
19210;BME280;9738;51.654;14.238;2023-03-23T00:51:18;99651.19;;;12.89;67.69
19210;BME280;9738;51.654;14.238;2023-03-23T00:53:44;99657.19;;;12.91;68.00
19210;BME280;9738;51.654;14.238;2023-03-23T00:56:11;99652.69;;;12.92;67.53
19210;BME280;9738;51.654;14.238;2023-03-23T00:58:37;99642.78;;;12.92;67.77
19210;BME280;9738;51.654;14.238;2023-03-23T01:01:03;99639.09;;;12.93;68.01
19210;BME280;9738;51.654;14.238;2023-03-23T01:03:30;99637.69;;;12.97;67.63
19210;BME280;9738;51.654;14.238;2023-03-23T01:05:56;99635.47;;;13.01;67.22
19210;BME280;9738;51.654;14.238;2023-03-23T01:08:23;99627.25;;;13.03;67.41
19210;BME280;9738;51.654;14.238;2023-03-23T01:10:50;99627.25;;;13.03;67.91
19210;BME280;9738;51.654;14.238;2023-03-23T01:13:16;99625.22;;;13.05;67.08
19210;BME280;9738;51.654;14.238;2023-03-23T01:15:42;99621.13;;;13.09;67.86
19210;BME280;9738;51.654;14.238;2023-03-23T01:18:09;99624.63;;;13.09;67.09
19210;BME280;9738;51.654;14.238;2023-03-23T01:20:36;99618.00;;;13.05;67.93
19210;BME280;9738;51.654;14.238;2023-03-23T01:23:03;99607.91;;;13.07;67.81
19210;BME280;9738;51.654;14.238;2023-03-23T01:25:31;99611.63;;;13.06;67.81
19210;BME280;9738;51.654;14.238;2023-03-23T01:27:58;99609.97;;;13.05;67.92
19210;BME280;9738;51.654;14.238;2023-03-23T01:30:24;99607.09;;;13.07;67.64
19210;BME280;9738;51.654;14.238;2023-03-23T01:32:51;99601.09;;;13.05;67.57
19210;BME280;9738;51.654;14.238;2023-03-23T01:35:18;99598.66;;;13.10;67.44
19210;BME280;9738;51.654;14.238;2023-03-23T01:37:44;99598.41;;;13.05;67.53
19210;BME280;9738;51.654;14.238;2023-03-23T01:40:10;99590.19;;;13.06;67.48
19210;BME280;9738;51.654;14.238;2023-03-23T01:42:38;99584.00;;;13.06;67.36
19210;BME280;9738;51.654;14.238;2023-03-23T01:47:50;99581.22;;;12.99;67.79
19210;BME280;9738;51.654;14.238;2023-03-23T01:50:19;99591.13;;;12.98;67.87
19210;BME280;9738;51.654;14.238;2023-03-23T01:52:51;99590.94;;;13.00;67.89
19210;BME280;9738;51.654;14.238;2023-03-23T01:55:19;99594.44;;;13.01;68.32
19210;BME280;9738;51.654;14.238;2023-03-23T01:57:45;99591.75;;;13.01;68.16
19210;BME280;9738;51.654;14.238;2023-03-23T02:00:12;99593.41;;;13.02;67.72
19210;BME280;9738;51.654;14.238;2023-03-23T02:02:43;99596.66;;;12.97;67.99
19210;BME280;9738;51.654;14.238;2023-03-23T02:05:23;99585.75;;;12.98;67.83
19210;BME280;9738;51.654;14.238;2023-03-23T02:07:51;99589.72;;;13.03;67.52
19210;BME280;9738;51.654;14.238;2023-03-23T02:10:17;99583.91;;;12.99;67.78
19210;BME280;9738;51.654;14.238;2023-03-23T02:12:43;99584.66;;;12.93;67.77
19210;BME280;9738;51.654;14.238;2023-03-23T02:15:10;99577.63;;;12.92;67.78
19210;BME280;9738;51.654;14.238;2023-03-23T02:17:51;99587.50;;;12.91;68.06
19210;BME280;9738;51.654;14.238;2023-03-23T02:20:38;99583.75;;;12.86;67.89
19210;BME280;9738;51.654;14.238;2023-03-23T02:23:27;99576.69;;;12.85;67.08
19210;BME280;9738;51.654;14.238;2023-03-23T02:29:30;99578.38;;;12.86;66.57
19210;BME280;9738;51.654;14.238;2023-03-23T02:37:07;99573.03;;;12.86;66.24
19210;BME280;9738;51.654;14.238;2023-03-23T02:39:47;99565.44;;;12.89;66.75
19210;BME280;9738;51.654;14.238;2023-03-23T02:42:20;99566.44;;;12.88;66.47
19210;BME280;9738;51.654;14.238;2023-03-23T02:44:49;99568.22;;;12.81;66.89
19210;BME280;9738;51.654;14.238;2023-03-23T02:47:22;99570.25;;;12.79;66.37
19210;BME280;9738;51.654;14.238;2023-03-23T02:49:52;99565.25;;;12.76;66.22
19210;BME280;9738;51.654;14.238;2023-03-23T02:52:26;99563.41;;;12.77;66.75
19210;BME280;9738;51.654;14.238;2023-03-23T02:54:55;99561.28;;;12.72;66.79
19210;BME280;9738;51.654;14.238;2023-03-23T02:57:23;99567.03;;;12.69;67.20
19210;BME280;9738;51.654;14.238;2023-03-23T02:59:50;99561.66;;;12.69;66.99
19210;BME280;9738;51.654;14.238;2023-03-23T03:02:17;99555.50;;;12.68;66.65
19210;BME280;9738;51.654;14.238;2023-03-23T03:05:26;99558.81;;;12.70;66.66
19210;BME280;9738;51.654;14.238;2023-03-23T03:07:59;99547.81;;;12.65;66.88
19210;BME280;9738;51.654;14.238;2023-03-23T03:10:31;99542.84;;;12.62;67.41
19210;BME280;9738;51.654;14.238;2023-03-23T03:13:14;99542.56;;;12.57;67.96
19210;BME280;9738;51.654;14.238;2023-03-23T03:15:51;99537.19;;;12.57;68.10
19210;BME280;9738;51.654;14.238;2023-03-23T03:18:26;99543.94;;;12.53;68.19
19210;BME280;9738;51.654;14.238;2023-03-23T03:20:58;99542.47;;;12.51;68.35
19210;BME280;9738;51.654;14.238;2023-03-23T03:23:27;99550.88;;;12.48;68.91
19210;BME280;9738;51.654;14.238;2023-03-23T03:25:55;99535.81;;;12.47;68.95
19210;BME280;9738;51.654;14.238;2023-03-23T03:28:23;99541.91;;;12.40;68.90
19210;BME280;9738;51.654;14.238;2023-03-23T03:30:56;99544.59;;;12.40;69.32
19210;BME280;9738;51.654;14.238;2023-03-23T03:33:24;99538.69;;;12.30;69.36
19210;BME280;9738;51.654;14.238;2023-03-23T03:35:54;99547.47;;;12.24;69.60
19210;BME280;9738;51.654;14.238;2023-03-23T03:38:21;99551.88;;;12.17;69.86
19210;BME280;9738;51.654;14.238;2023-03-23T03:40:47;99550.78;;;12.11;70.40
19210;BME280;9738;51.654;14.238;2023-03-23T03:43:13;99539.03;;;12.12;70.25
19210;BME280;9738;51.654;14.238;2023-03-23T03:45:39;99546.97;;;12.06;70.57
19210;BME280;9738;51.654;14.238;2023-03-23T03:48:06;99547.50;;;12.01;70.70
19210;BME280;9738;51.654;14.238;2023-03-23T03:50:32;99549.94;;;11.96;71.06
19210;BME280;9738;51.654;14.238;2023-03-23T03:52:58;99548.09;;;11.97;70.86
19210;BME280;9738;51.654;14.238;2023-03-23T03:55:24;99538.38;;;11.96;70.59
19210;BME280;9738;51.654;14.238;2023-03-23T03:57:51;99538.66;;;12.01;70.35
19210;BME280;9738;51.654;14.238;2023-03-23T04:00:17;99531.47;;;12.01;70.07
19210;BME280;9738;51.654;14.238;2023-03-23T04:02:45;99532.66;;;11.99;69.88
19210;BME280;9738;51.654;14.238;2023-03-23T04:05:13;99534.69;;;11.97;70.61
19210;BME280;9738;51.654;14.238;2023-03-23T04:07:39;99531.19;;;11.96;70.53
19210;BME280;9738;51.654;14.238;2023-03-23T04:10:07;99526.72;;;11.88;70.78
19210;BME280;9738;51.654;14.238;2023-03-23T04:12:35;99527.31;;;11.84;70.90
19210;BME280;9738;51.654;14.238;2023-03-23T04:15:01;99533.34;;;11.78;71.23
19210;BME280;9738;51.654;14.238;2023-03-23T04:17:28;99524.66;;;11.76;71.47
19210;BME280;9738;51.654;14.238;2023-03-23T04:19:54;99527.47;;;11.82;71.45
19210;BME280;9738;51.654;14.238;2023-03-23T04:22:23;99513.34;;;11.88;70.85
19210;BME280;9738;51.654;14.238;2023-03-23T04:24:57;99509.50;;;11.91;71.33
19210;BME280;9738;51.654;14.238;2023-03-23T04:27:25;99503.78;;;11.94;71.21
19210;BME280;9738;51.654;14.238;2023-03-23T04:29:57;99500.25;;;11.94;71.23
19210;BME280;9738;51.654;14.238;2023-03-23T04:32:25;99497.97;;;11.90;71.06
19210;BME280;9738;51.654;14.238;2023-03-23T04:34:58;99502.31;;;11.92;71.33
19210;BME280;9738;51.654;14.238;2023-03-23T04:37:26;99499.25;;;11.95;71.22
19210;BME280;9738;51.654;14.238;2023-03-23T04:39:57;99498.41;;;11.94;71.29
19210;BME280;9738;51.654;14.238;2023-03-23T04:42:28;99489.84;;;11.99;70.59
19210;BME280;9738;51.654;14.238;2023-03-23T04:44:58;99482.25;;;12.02;70.28
19210;BME280;9738;51.654;14.238;2023-03-23T04:47:26;99485.41;;;12.06;69.91
19210;BME280;9738;51.654;14.238;2023-03-23T04:49:56;99497.06;;;12.13;70.10
19210;BME280;9738;51.654;14.238;2023-03-23T04:52:24;99491.44;;;12.23;69.25
19210;BME280;9738;51.654;14.238;2023-03-23T04:54:52;99494.19;;;12.29;68.50
19210;BME280;9738;51.654;14.238;2023-03-23T04:57:18;99484.59;;;12.35;67.80
19210;BME280;9738;51.654;14.238;2023-03-23T04:59:44;99475.53;;;12.36;69.19
19210;BME280;9738;51.654;14.238;2023-03-23T05:02:10;99483.38;;;12.37;69.39
19210;BME280;9738;51.654;14.238;2023-03-23T05:04:39;99499.84;;;12.34;69.95
19210;BME280;9738;51.654;14.238;2023-03-23T05:07:07;99499.34;;;12.31;69.78
19210;BME280;9738;51.654;14.238;2023-03-23T05:09:33;99495.22;;;12.28;70.50
19210;BME280;9738;51.654;14.238;2023-03-23T05:12:07;99487.00;;;12.30;70.10
19210;BME280;9738;51.654;14.238;2023-03-23T05:14:34;99490.69;;;12.29;69.08
19210;BME280;9738;51.654;14.238;2023-03-23T05:17:00;99484.41;;;12.36;68.36
19210;BME280;9738;51.654;14.238;2023-03-23T05:19:26;99493.81;;;12.47;68.16
19210;BME280;9738;51.654;14.238;2023-03-23T05:21:56;99492.88;;;12.55;67.30
19210;BME280;9738;51.654;14.238;2023-03-23T05:24:22;99487.22;;;12.64;66.51
19210;BME280;9738;51.654;14.238;2023-03-23T05:26:49;99483.66;;;12.79;66.95
19210;BME280;9738;51.654;14.238;2023-03-23T05:29:18;99491.03;;;12.91;66.09
19210;BME280;9738;51.654;14.238;2023-03-23T05:31:44;99491.19;;;13.05;65.17
19210;BME280;9738;51.654;14.238;2023-03-23T05:34:10;99500.13;;;13.12;65.07
19210;BME280;9738;51.654;14.238;2023-03-23T05:36:37;99496.84;;;13.16;64.54
19210;BME280;9738;51.654;14.238;2023-03-23T05:39:03;99499.47;;;13.24;65.16
19210;BME280;9738;51.654;14.238;2023-03-23T05:41:29;99496.00;;;13.31;63.85
19210;BME280;9738;51.654;14.238;2023-03-23T05:43:55;99506.19;;;13.42;64.71
19210;BME280;9738;51.654;14.238;2023-03-23T05:46:21;99496.56;;;13.47;64.64
19210;BME280;9738;51.654;14.238;2023-03-23T05:48:47;99493.09;;;13.53;64.17
19210;BME280;9738;51.654;14.238;2023-03-23T05:51:13;99493.97;;;13.61;63.91
19210;BME280;9738;51.654;14.238;2023-03-23T05:53:40;99495.06;;;13.66;64.04
19210;BME280;9738;51.654;14.238;2023-03-23T05:56:06;99487.47;;;13.70;63.97
19210;BME280;9738;51.654;14.238;2023-03-23T05:58:32;99489.38;;;13.76;64.11
19210;BME280;9738;51.654;14.238;2023-03-23T06:00:58;99492.88;;;13.76;63.28
19210;BME280;9738;51.654;14.238;2023-03-23T06:03:24;99497.03;;;13.79;63.95
19210;BME280;9738;51.654;14.238;2023-03-23T06:05:50;99504.69;;;13.82;63.66
19210;BME280;9738;51.654;14.238;2023-03-23T06:08:16;99505.06;;;13.79;63.38
19210;BME280;9738;51.654;14.238;2023-03-23T06:10:42;99509.66;;;13.85;63.59
19210;BME280;9738;51.654;14.238;2023-03-23T06:13:09;99510.06;;;13.82;64.31
19210;BME280;9738;51.654;14.238;2023-03-23T06:15:36;99502.03;;;13.82;63.29
19210;BME280;9738;51.654;14.238;2023-03-23T06:18:03;99509.25;;;13.82;64.40
19210;BME280;9738;51.654;14.238;2023-03-23T06:20:29;99512.34;;;13.85;64.14
19210;BME280;9738;51.654;14.238;2023-03-23T06:22:56;99504.94;;;13.87;63.81
19210;BME280;9738;51.654;14.238;2023-03-23T06:25:22;99511.53;;;13.85;63.43
19210;BME280;9738;51.654;14.238;2023-03-23T06:27:49;99494.00;;;13.89;63.73
19210;BME280;9738;51.654;14.238;2023-03-23T06:30:15;99495.50;;;13.98;64.01
19210;BME280;9738;51.654;14.238;2023-03-23T06:32:41;99498.66;;;14.01;63.91
19210;BME280;9738;51.654;14.238;2023-03-23T06:35:09;99494.69;;;13.97;63.90
19210;BME280;9738;51.654;14.238;2023-03-23T06:37:37;99514.09;;;13.99;63.74
19210;BME280;9738;51.654;14.238;2023-03-23T06:40:04;99505.66;;;14.02;63.48
19210;BME280;9738;51.654;14.238;2023-03-23T06:42:34;99503.34;;;13.99;63.46
19210;BME280;9738;51.654;14.238;2023-03-23T06:45:01;99515.63;;;14.09;64.24
19210;BME280;9738;51.654;14.238;2023-03-23T06:47:28;99518.47;;;14.00;63.06
19210;BME280;9738;51.654;14.238;2023-03-23T06:49:57;99519.72;;;14.04;62.86
19210;BME280;9738;51.654;14.238;2023-03-23T06:52:24;99523.88;;;14.07;63.33
19210;BME280;9738;51.654;14.238;2023-03-23T06:54:51;99524.75;;;14.14;63.35
19210;BME280;9738;51.654;14.238;2023-03-23T06:57:18;99517.78;;;14.20;62.80
19210;BME280;9738;51.654;14.238;2023-03-23T06:59:44;99516.53;;;14.22;62.93
19210;BME280;9738;51.654;14.238;2023-03-23T07:02:11;99511.81;;;14.31;62.91
19210;BME280;9738;51.654;14.238;2023-03-23T07:04:38;99528.84;;;14.38;65.25
19210;BME280;9738;51.654;14.238;2023-03-23T07:07:05;99533.13;;;14.32;64.76
19210;BME280;9738;51.654;14.238;2023-03-23T07:09:31;99535.56;;;14.27;65.75
19210;BME280;9738;51.654;14.238;2023-03-23T07:11:57;99535.38;;;14.29;66.71
19210;BME280;9738;51.654;14.238;2023-03-23T07:14:24;99535.53;;;14.21;66.74
19210;BME280;9738;51.654;14.238;2023-03-23T07:16:50;99534.25;;;14.17;66.17
19210;BME280;9738;51.654;14.238;2023-03-23T07:19:16;99538.22;;;14.21;66.95
19210;BME280;9738;51.654;14.238;2023-03-23T07:21:43;99542.75;;;14.20;66.01
19210;BME280;9738;51.654;14.238;2023-03-23T07:24:12;99550.63;;;14.22;66.82
19210;BME280;9738;51.654;14.238;2023-03-23T07:26:42;99552.91;;;14.25;65.73
19210;BME280;9738;51.654;14.238;2023-03-23T07:29:09;99556.25;;;14.27;65.80
19210;BME280;9738;51.654;14.238;2023-03-23T07:31:35;99554.59;;;14.26;65.00
19210;BME280;9738;51.654;14.238;2023-03-23T07:34:01;99556.25;;;14.27;65.74
19210;BME280;9738;51.654;14.238;2023-03-23T07:36:29;99555.44;;;14.33;66.54
19210;BME280;9738;51.654;14.238;2023-03-23T07:38:55;99550.28;;;14.31;64.96
19210;BME280;9738;51.654;14.238;2023-03-23T07:41:21;99561.41;;;14.28;65.44
19210;BME280;9738;51.654;14.238;2023-03-23T07:43:48;99565.53;;;14.31;66.88
19210;BME280;9738;51.654;14.238;2023-03-23T07:46:13;99574.00;;;14.28;66.71
19210;BME280;9738;51.654;14.238;2023-03-23T07:48:39;99564.53;;;14.32;66.77
19210;BME280;9738;51.654;14.238;2023-03-23T07:51:06;99573.81;;;14.29;66.48
19210;BME280;9738;51.654;14.238;2023-03-23T07:53:33;99586.41;;;14.29;66.71
19210;BME280;9738;51.654;14.238;2023-03-23T07:55:58;99582.03;;;14.21;65.54
19210;BME280;9738;51.654;14.238;2023-03-23T07:58:25;99591.31;;;14.19;67.14
19210;BME280;9738;51.654;14.238;2023-03-23T08:00:52;99595.41;;;14.15;68.80
19210;BME280;9738;51.654;14.238;2023-03-23T08:03:18;99599.69;;;14.09;70.96
19210;BME280;9738;51.654;14.238;2023-03-23T08:05:44;99598.03;;;14.08;71.25
19210;BME280;9738;51.654;14.238;2023-03-23T08:08:10;99601.91;;;14.05;72.05
19210;BME280;9738;51.654;14.238;2023-03-23T08:10:36;99613.13;;;14.09;71.76
19210;BME280;9738;51.654;14.238;2023-03-23T08:13:03;99616.84;;;14.08;71.96
19210;BME280;9738;51.654;14.238;2023-03-23T08:15:29;99618.03;;;14.05;72.17
19210;BME280;9738;51.654;14.238;2023-03-23T08:17:55;99616.00;;;14.07;73.56
19210;BME280;9738;51.654;14.238;2023-03-23T08:20:21;99621.81;;;14.11;73.78
19210;BME280;9738;51.654;14.238;2023-03-23T08:22:55;99623.44;;;14.12;73.39
19210;BME280;9738;51.654;14.238;2023-03-23T08:25:23;99624.25;;;14.06;73.86
19210;BME280;9738;51.654;14.238;2023-03-23T08:27:53;99635.44;;;13.88;74.97
19210;BME280;9738;51.654;14.238;2023-03-23T08:30:21;99637.41;;;13.79;77.46
19210;BME280;9738;51.654;14.238;2023-03-23T08:32:49;99628.94;;;13.76;79.44
19210;BME280;9738;51.654;14.238;2023-03-23T08:35:16;99636.84;;;13.63;78.25
19210;BME280;9738;51.654;14.238;2023-03-23T08:37:43;99639.63;;;13.55;78.92
19210;BME280;9738;51.654;14.238;2023-03-23T08:40:11;99644.38;;;13.52;80.52
19210;BME280;9738;51.654;14.238;2023-03-23T08:42:42;99637.97;;;13.53;80.95
19210;BME280;9738;51.654;14.238;2023-03-23T08:45:10;99639.91;;;13.60;80.41
19210;BME280;9738;51.654;14.238;2023-03-23T08:47:37;99635.75;;;13.57;80.62
19210;BME280;9738;51.654;14.238;2023-03-23T08:50:05;99641.81;;;13.44;80.92
19210;BME280;9738;51.654;14.238;2023-03-23T08:52:31;99640.03;;;13.51;82.87
19210;BME280;9738;51.654;14.238;2023-03-23T08:54:57;99632.25;;;13.57;82.70
19210;BME280;9738;51.654;14.238;2023-03-23T08:57:25;99636.31;;;13.52;82.81
19210;BME280;9738;51.654;14.238;2023-03-23T08:59:51;99645.94;;;13.47;82.54
19210;BME280;9738;51.654;14.238;2023-03-23T09:02:20;99636.88;;;13.48;84.99
19210;BME280;9738;51.654;14.238;2023-03-23T09:04:46;99647.16;;;13.44;86.51
19210;BME280;9738;51.654;14.238;2023-03-23T09:07:12;99640.72;;;13.39;87.00
19210;BME280;9738;51.654;14.238;2023-03-23T09:09:40;99648.75;;;13.39;88.60
19210;BME280;9738;51.654;14.238;2023-03-23T09:12:09;99649.31;;;13.34;87.77
19210;BME280;9738;51.654;14.238;2023-03-23T09:14:37;99644.22;;;13.39;90.75
19210;BME280;9738;51.654;14.238;2023-03-23T09:17:04;99641.00;;;13.29;89.19
19210;BME280;9738;51.654;14.238;2023-03-23T09:19:32;99640.16;;;13.29;90.78
19210;BME280;9738;51.654;14.238;2023-03-23T09:21:59;99650.72;;;13.30;90.92
19210;BME280;9738;51.654;14.238;2023-03-23T09:24:26;99652.59;;;13.30;90.50
19210;BME280;9738;51.654;14.238;2023-03-23T09:26:52;99651.56;;;13.31;93.58
19210;BME280;9738;51.654;14.238;2023-03-23T09:29:18;99651.38;;;13.32;91.09
19210;BME280;9738;51.654;14.238;2023-03-23T09:31:45;99662.28;;;13.31;93.81
19210;BME280;9738;51.654;14.238;2023-03-23T09:34:13;99659.59;;;13.31;93.89
19210;BME280;9738;51.654;14.238;2023-03-23T09:36:42;99656.34;;;13.35;98.11
19210;BME280;9738;51.654;14.238;2023-03-23T09:39:10;99663.47;;;13.28;94.95
19210;BME280;9738;51.654;14.238;2023-03-23T09:44:36;99667.19;;;13.27;98.59
19210;BME280;9738;51.654;14.238;2023-03-23T09:47:20;99662.84;;;13.26;98.58
19210;BME280;9738;51.654;14.238;2023-03-23T09:50:06;99663.88;;;13.25;98.08
19210;BME280;9738;51.654;14.238;2023-03-23T09:52:41;99671.78;;;13.33;100.00
19210;BME280;9738;51.654;14.238;2023-03-23T09:55:13;99676.13;;;13.34;100.00
19210;BME280;9738;51.654;14.238;2023-03-23T09:57:49;99670.50;;;13.44;100.00
19210;BME280;9738;51.654;14.238;2023-03-23T10:00:31;99667.34;;;13.40;100.00
19210;BME280;9738;51.654;14.238;2023-03-23T10:03:07;99662.25;;;13.45;100.00
19210;BME280;9738;51.654;14.238;2023-03-23T10:05:40;99658.72;;;13.45;100.00
19210;BME280;9738;51.654;14.238;2023-03-23T10:08:14;99655.22;;;13.44;100.00
19210;BME280;9738;51.654;14.238;2023-03-23T10:10:50;99640.78;;;13.45;100.00
19210;BME280;9738;51.654;14.238;2023-03-23T10:15:59;99637.81;;;13.55;100.00
19210;BME280;9738;51.654;14.238;2023-03-23T10:18:37;99634.94;;;13.57;100.00
19210;BME280;9738;51.654;14.238;2023-03-23T10:21:06;99636.59;;;13.58;100.00
19210;BME280;9738;51.654;14.238;2023-03-23T10:29:22;99641.06;;;13.72;100.00
19210;BME280;9738;51.654;14.238;2023-03-23T10:31:58;99637.13;;;13.68;100.00
19210;BME280;9738;51.654;14.238;2023-03-23T10:34:32;99634.22;;;13.69;100.00
19210;BME280;9738;51.654;14.238;2023-03-23T10:37:07;99636.84;;;13.84;100.00
19210;BME280;9738;51.654;14.238;2023-03-23T10:39:54;99631.13;;;13.87;100.00
19210;BME280;9738;51.654;14.238;2023-03-23T10:42:32;99628.91;;;13.97;100.00
19210;BME280;9738;51.654;14.238;2023-03-23T10:45:11;99621.75;;;14.04;99.67
19210;BME280;9738;51.654;14.238;2023-03-23T10:47:44;99625.97;;;14.14;100.00
19210;BME280;9738;51.654;14.238;2023-03-23T10:50:14;99622.25;;;14.15;97.77
19210;BME280;9738;51.654;14.238;2023-03-23T10:52:43;99619.41;;;14.23;95.16
19210;BME280;9738;51.654;14.238;2023-03-23T10:55:11;99613.56;;;14.41;97.01
19210;BME280;9738;51.654;14.238;2023-03-23T10:57:39;99614.31;;;14.56;94.00
19210;BME280;9738;51.654;14.238;2023-03-23T11:02:42;99626.81;;;14.70;87.51
19210;BME280;9738;51.654;14.238;2023-03-23T11:05:18;99627.66;;;14.71;87.59
19210;BME280;9738;51.654;14.238;2023-03-23T11:07:50;99618.53;;;14.72;88.48
19210;BME280;9738;51.654;14.238;2023-03-23T11:10:27;99622.66;;;14.68;87.30
19210;BME280;9738;51.654;14.238;2023-03-23T11:12:57;99621.44;;;14.70;85.93
19210;BME280;9738;51.654;14.238;2023-03-23T11:15:36;99627.41;;;14.66;83.24
19210;BME280;9738;51.654;14.238;2023-03-23T11:18:34;99642.25;;;14.62;85.44
19210;BME280;9738;51.654;14.238;2023-03-23T11:20:56;99629.06;;;14.67;85.02
19210;BME280;9738;51.654;14.238;2023-03-23T11:23:29;99631.28;;;14.63;84.16
19210;BME280;9738;51.654;14.238;2023-03-23T11:26:13;99632.13;;;14.57;81.83
19210;BME280;9738;51.654;14.238;2023-03-23T11:28:48;99641.63;;;14.59;82.12
19210;BME280;9738;51.654;14.238;2023-03-23T11:31:21;99652.00;;;14.69;83.53
19210;BME280;9738;51.654;14.238;2023-03-23T11:34:03;99652.00;;;14.69;82.22
19210;BME280;9738;51.654;14.238;2023-03-23T11:36:36;99646.25;;;14.72;84.54
19210;BME280;9738;51.654;14.238;2023-03-23T11:39:19;99641.38;;;14.82;81.67
19210;BME280;9738;51.654;14.238;2023-03-23T11:41:47;99638.09;;;14.94;83.88
19210;BME280;9738;51.654;14.238;2023-03-23T11:44:13;99632.53;;;14.95;79.27
19210;BME280;9738;51.654;14.238;2023-03-23T11:46:46;99631.28;;;14.98;81.71
19210;BME280;9738;51.654;14.238;2023-03-23T11:58:12;99627.28;;;15.22;78.65
19210;BME280;9738;51.654;14.238;2023-03-23T12:00:47;99616.13;;;15.31;78.53
19210;BME280;9738;51.654;14.238;2023-03-23T12:03:15;99623.13;;;15.26;76.23
19210;BME280;9738;51.654;14.238;2023-03-23T12:05:54;99625.84;;;15.39;77.39
19210;BME280;9738;51.654;14.238;2023-03-23T12:08:36;99617.59;;;15.40;76.59
19210;BME280;9738;51.654;14.238;2023-03-23T12:11:19;99625.03;;;15.45;74.48
19210;BME280;9738;51.654;14.238;2023-03-23T12:14:09;99634.56;;;15.41;74.87
19210;BME280;9738;51.654;14.238;2023-03-23T12:19:45;99627.53;;;15.33;75.43
19210;BME280;9738;51.654;14.238;2023-03-23T12:22:30;99624.19;;;15.31;74.05
19210;BME280;9738;51.654;14.238;2023-03-23T12:27:55;99632.13;;;15.46;72.31
19210;BME280;9738;51.654;14.238;2023-03-23T12:30:46;99632.97;;;15.53;72.62
19210;BME280;9738;51.654;14.238;2023-03-23T12:45:04;99612.41;;;15.39;71.15
19210;BME280;9738;51.654;14.238;2023-03-23T12:47:37;99606.88;;;15.47;71.56
19210;BME280;9738;51.654;14.238;2023-03-23T12:50:29;99605.41;;;15.51;72.21
19210;BME280;9738;51.654;14.238;2023-03-23T12:53:02;99614.31;;;15.52;71.50
19210;BME280;9738;51.654;14.238;2023-03-23T12:55:51;99612.22;;;15.40;72.10
19210;BME280;9738;51.654;14.238;2023-03-23T12:58:24;99606.41;;;15.37;70.90
19210;BME280;9738;51.654;14.238;2023-03-23T13:00:56;99608.47;;;15.35;72.16
19210;BME280;9738;51.654;14.238;2023-03-23T13:06:21;99599.25;;;15.64;72.90
19210;BME280;9738;51.654;14.238;2023-03-23T13:11:35;99611.88;;;15.63;72.08
19210;BME280;9738;51.654;14.238;2023-03-23T13:22:17;99606.81;;;15.34;74.86
19210;BME280;9738;51.654;14.238;2023-03-23T13:24:56;99593.56;;;15.32;74.83
19210;BME280;9738;51.654;14.238;2023-03-23T13:27:25;99609.69;;;15.32;75.65
19210;BME280;9738;51.654;14.238;2023-03-23T13:29:54;99596.44;;;15.31;76.59
19210;BME280;9738;51.654;14.238;2023-03-23T13:32:36;99602.88;;;15.30;74.98
19210;BME280;9738;51.654;14.238;2023-03-23T13:35:04;99605.94;;;15.27;76.86
19210;BME280;9738;51.654;14.238;2023-03-23T13:37:32;99598.03;;;15.12;76.63
19210;BME280;9738;51.654;14.238;2023-03-23T13:42:48;99588.94;;;15.13;78.11
19210;BME280;9738;51.654;14.238;2023-03-23T13:45:24;99584.22;;;15.22;78.62
19210;BME280;9738;51.654;14.238;2023-03-23T13:50:59;99583.22;;;15.36;76.35
19210;BME280;9738;51.654;14.238;2023-03-23T13:53:47;99576.63;;;15.45;77.54
19210;BME280;9738;51.654;14.238;2023-03-23T13:56:21;99565.03;;;15.51;76.38
19210;BME280;9738;51.654;14.238;2023-03-23T13:59:05;99570.84;;;15.55;76.03
19210;BME280;9738;51.654;14.238;2023-03-23T14:01:34;99570.44;;;15.58;75.35
19210;BME280;9738;51.654;14.238;2023-03-23T14:04:06;99575.66;;;15.66;76.43
19210;BME280;9738;51.654;14.238;2023-03-23T14:06:36;99571.91;;;15.60;75.38
19210;BME280;9738;51.654;14.238;2023-03-23T14:09:33;99564.91;;;15.66;76.83
19210;BME280;9738;51.654;14.238;2023-03-23T14:12:04;99574.19;;;15.63;76.21
19210;BME280;9738;51.654;14.238;2023-03-23T14:14:44;99554.53;;;15.89;74.60
19210;BME280;9738;51.654;14.238;2023-03-23T14:17:26;99561.16;;;16.07;73.32
19210;BME280;9738;51.654;14.238;2023-03-23T14:19:57;99542.31;;;16.00;73.49
19210;BME280;9738;51.654;14.238;2023-03-23T14:22:34;99556.59;;;16.01;74.58
19210;BME280;9738;51.654;14.238;2023-03-23T14:25:13;99564.06;;;15.79;73.67
19210;BME280;9738;51.654;14.238;2023-03-23T14:27:40;99568.41;;;15.66;74.04